aviador You're here:

LKMT Decoded Metar

OSTRAVA in CZECH REPUBLIC
Report Time2018-07-20 06:00:00
UTC Time2018-07-20 06:26:05
Flight Rules vfr VFR
Wind350° at 08 kt
W.Decomp.*RWY 04: 4.7 kt HW 6.5 kt LCW
W.Rank350° ranks 14
Current wind is above 350° avg. (6.6)
Visibility9999 m
Phenomena:N/A
Clouds:Scattered 014 Hf
Broken 043 Hf
Expected CloudBase > 1,200 ft AGL from Temp-Dew spread
Ceiling4,300 ft
Temp18°C (ISA +5)
Dew Point15°C (83% RH)
AAT16.8°C
QNH1014 hPa
Density Alt1,585 ft
Elevation840 ft
Report Wrong Elevation
Raw Report
LKMT 200600Z 35008KT 310V020 9999 SCT014 BKN043 18/15 Q1014
NOSIG=

Extra information for LKMT:More info

Metar Taf Metar & Taf Last 4 Metars F.Rules Stats Wind Profile Meteogram Temp Stats Airport Information Weather charts Add Link Nearby VenuesMetar ALERT Operation Metar Decoded Social comments